createdAt,value
2022-12-06T00:01:10.741Z,14.90
2022-12-06T00:03:38.386Z,17.45
2022-12-06T00:06:10.495Z,14.98
2022-12-06T00:08:38.496Z,14.38
2022-12-06T00:11:13.630Z,14.30
2022-12-06T00:13:41.157Z,14.32
2022-12-06T00:16:12.881Z,13.77
2022-12-06T00:18:40.740Z,17.35
2022-12-06T00:21:07.314Z,16.52
2022-12-06T00:23:36.653Z,14.93
2022-12-06T00:26:03.361Z,16.92
2022-12-06T00:28:29.929Z,14.20
2022-12-06T00:31:01.200Z,17.30
2022-12-06T00:33:28.294Z,16.83
2022-12-06T00:36:07.191Z,18.65
2022-12-06T00:38:37.219Z,17.55
2022-12-06T00:41:31.272Z,17.33
2022-12-06T00:43:58.548Z,15.45
2022-12-06T00:46:28.174Z,16.70
2022-12-06T00:48:56.635Z,16.63
2022-12-06T00:51:24.747Z,15.13
2022-12-06T00:53:51.789Z,17.88
2022-12-06T00:56:19.412Z,18.33
2022-12-06T00:58:46.721Z,19.10
2022-12-06T01:01:16.270Z,18.80
2022-12-06T01:03:44.347Z,16.48
2022-12-06T01:06:15.140Z,19.08
2022-12-06T01:08:43.356Z,17.55
2022-12-06T01:11:11.315Z,17.70
2022-12-06T01:13:37.925Z,17.80
2022-12-06T01:16:13.380Z,16.35
2022-12-06T01:18:40.671Z,17.98
2022-12-06T01:21:09.418Z,19.15
2022-12-06T01:23:36.268Z,15.05
2022-12-06T01:26:04.622Z,17.95
2022-12-06T01:28:31.227Z,21.13
2022-12-06T01:30:57.935Z,18.55
2022-12-06T01:33:24.573Z,17.58
2022-12-06T01:35:51.152Z,17.10
2022-12-06T01:38:17.905Z,19.33
2022-12-06T01:40:47.796Z,25.48
2022-12-06T01:43:33.422Z,20.42
2022-12-06T01:46:05.893Z,21.00
2022-12-06T01:48:33.896Z,23.52
2022-12-06T01:51:01.368Z,20.05
2022-12-06T01:53:28.045Z,20.17
2022-12-06T01:55:54.859Z,21.10
2022-12-06T01:58:29.598Z,19.80
2022-12-06T02:00:56.405Z,19.83
2022-12-06T02:03:27.338Z,21.83
2022-12-06T02:05:55.344Z,20.70
2022-12-06T02:08:22.559Z,22.60
2022-12-06T02:10:49.259Z,20.48
2022-12-06T02:13:16.312Z,22.35
2022-12-06T02:16:17.311Z,22.98
2022-12-06T02:18:53.017Z,22.17
2022-12-06T02:21:46.405Z,23.05
2022-12-06T02:24:43.039Z,19.60
2022-12-06T02:27:40.211Z,20.50
2022-12-06T02:30:21.110Z,24.73
2022-12-06T02:33:05.819Z,27.10
2022-12-06T02:35:38.503Z,30.63
2022-12-06T02:38:20.302Z,27.75
2022-12-06T02:40:58.794Z,25.27
2022-12-06T02:43:40.579Z,26.58
2022-12-06T02:46:09.250Z,25.58
2022-12-06T02:48:37.996Z,24.58
2022-12-06T02:51:14.270Z,23.52
2022-12-06T02:53:45.959Z,21.65
2022-12-06T02:56:16.329Z,22.48
2022-12-06T02:58:42.903Z,22.58
2022-12-06T03:01:22.328Z,20.38
2022-12-06T03:03:58.041Z,19.83
2022-12-06T03:06:27.402Z,22.02
2022-12-06T03:09:14.163Z,18.75
2022-12-06T03:11:59.681Z,21.58
2022-12-06T03:14:31.604Z,19.52
2022-12-06T03:19:44.376Z,18.73
2022-12-06T03:22:19.620Z,19.83
2022-12-06T03:24:47.431Z,20.42
2022-12-06T03:27:18.025Z,21.77
2022-12-06T03:29:55.722Z,18.35
2022-12-06T03:32:25.680Z,17.58
2022-12-06T03:34:55.820Z,15.45
2022-12-06T03:37:25.058Z,16.42
2022-12-06T03:40:17.929Z,16.77
2022-12-06T03:42:44.854Z,14.48
2022-12-06T03:45:13.293Z,15.00
2022-12-06T03:47:57.818Z,14.85
2022-12-06T03:50:33.285Z,15.23
2022-12-06T03:53:01.410Z,13.45
2022-12-06T03:55:27.981Z,17.55
2022-12-06T03:57:54.489Z,16.17
2022-12-06T04:00:21.125Z,17.95
2022-12-06T04:02:47.678Z,15.07
2022-12-06T04:05:14.209Z,15.98
2022-12-06T04:07:40.834Z,17.50
2022-12-06T04:10:07.849Z,13.25
2022-12-06T04:12:53.984Z,15.50
2022-12-06T04:15:22.208Z,14.98
2022-12-06T04:18:07.675Z,14.10
2022-12-06T04:20:54.176Z,16.63
2022-12-06T04:23:21.304Z,15.18
2022-12-06T04:25:48.183Z,16.05
2022-12-06T04:28:33.490Z,18.90
2022-12-06T04:31:21.955Z,17.52
2022-12-06T04:34:08.043Z,16.73
2022-12-06T04:36:53.452Z,19.40
2022-12-06T04:39:21.169Z,15.85
2022-12-06T04:42:07.079Z,18.95
2022-12-06T04:44:33.636Z,15.98
2022-12-06T04:47:00.995Z,15.98
2022-12-06T04:49:27.941Z,16.75
2022-12-06T04:51:55.258Z,15.95
2022-12-06T04:54:22.842Z,14.23
2022-12-06T04:56:49.386Z,16.00
2022-12-06T04:59:16.474Z,15.02
2022-12-06T05:01:42.984Z,18.33
2022-12-06T05:04:09.728Z,18.17
2022-12-06T05:06:36.456Z,15.40
2022-12-06T05:09:04.061Z,16.80
2022-12-06T05:11:30.654Z,18.20
2022-12-06T05:13:57.330Z,14.50
2022-12-06T05:16:23.908Z,18.85
2022-12-06T05:18:50.512Z,19.13
2022-12-06T05:21:19.704Z,15.35
2022-12-06T05:23:46.916Z,16.20
2022-12-06T05:26:15.903Z,19.60
2022-12-06T05:28:43.181Z,17.92
2022-12-06T05:31:10.241Z,17.73
2022-12-06T05:33:37.833Z,18.15
2022-12-06T05:36:09.750Z,18.30
2022-12-06T05:41:04.104Z,17.52
2022-12-06T05:43:30.918Z,17.42
2022-12-06T05:45:58.228Z,19.30
2022-12-06T05:48:25.092Z,16.98
2022-12-06T05:50:51.834Z,16.63
2022-12-06T05:53:18.781Z,18.70
2022-12-06T05:55:45.670Z,19.05
2022-12-06T05:58:12.852Z,9.43
2022-12-06T06:00:39.538Z,9.63
2022-12-06T06:03:06.272Z,11.82
2022-12-06T06:05:33.238Z,12.15
2022-12-06T06:07:59.844Z,13.70
2022-12-06T06:10:26.524Z,13.98
2022-12-06T06:12:53.074Z,13.57
2022-12-06T06:15:19.575Z,19.63
2022-12-06T06:17:46.151Z,14.65
2022-12-06T06:20:13.958Z,12.50
2022-12-06T06:22:42.231Z,17.92
2022-12-06T06:25:09.737Z,16.65
2022-12-06T06:27:37.915Z,16.65
2022-12-06T06:30:10.982Z,13.93
2022-12-06T06:32:37.771Z,16.83
2022-12-06T06:35:05.444Z,13.90
2022-12-06T06:37:33.151Z,16.13
2022-12-06T06:40:01.151Z,15.52
2022-12-06T06:42:27.839Z,15.82
2022-12-06T06:44:57.433Z,17.08
2022-12-06T06:47:24.059Z,16.88
2022-12-06T06:49:50.560Z,14.40
2022-12-06T06:52:17.332Z,14.63
2022-12-06T06:54:43.923Z,16.13
2022-12-06T06:57:15.866Z,16.98
2022-12-06T06:59:45.393Z,15.05
2022-12-06T07:02:16.847Z,15.60
2022-12-06T07:04:44.668Z,16.17
2022-12-06T07:07:16.480Z,16.60
2022-12-06T07:09:47.428Z,17.05
2022-12-06T07:12:14.044Z,16.00
2022-12-06T07:14:40.551Z,14.88
2022-12-06T07:17:07.214Z,14.15
2022-12-06T07:19:33.779Z,18.20
2022-12-06T07:22:00.306Z,14.40
2022-12-06T07:24:26.877Z,16.73
2022-12-06T07:26:54.824Z,19.00
2022-12-06T07:29:21.345Z,20.15
2022-12-06T07:31:47.870Z,15.57
2022-12-06T07:34:14.508Z,17.27
2022-12-06T07:36:41.035Z,16.35
2022-12-06T07:39:13.084Z,13.88
2022-12-06T07:41:59.670Z,15.05
2022-12-06T07:44:44.830Z,12.93
2022-12-06T07:47:11.357Z,14.15
2022-12-06T07:49:37.874Z,15.15
2022-12-06T07:52:04.415Z,13.90
2022-12-06T07:54:30.992Z,14.45
2022-12-06T07:56:57.593Z,12.75
2022-12-06T07:59:25.212Z,17.65
2022-12-06T08:01:52.721Z,16.20
2022-12-06T08:04:19.768Z,13.68
2022-12-06T08:06:46.418Z,15.05
2022-12-06T08:09:13.006Z,14.55
2022-12-06T08:11:39.616Z,13.20
2022-12-06T08:14:06.173Z,17.13
2022-12-06T08:16:32.849Z,13.95
2022-12-06T08:18:59.443Z,15.18
2022-12-06T08:21:26.790Z,14.88
2022-12-06T08:23:54.677Z,13.27
2022-12-06T08:26:21.469Z,15.32
2022-12-06T08:28:48.263Z,16.42
2022-12-06T08:31:20.892Z,14.65
2022-12-06T08:33:47.544Z,16.52
2022-12-06T08:36:18.250Z,16.63
2022-12-06T08:38:45.927Z,14.88
2022-12-06T08:41:31.527Z,16.20
2022-12-06T08:43:59.882Z,17.15
2022-12-06T08:46:27.694Z,20.77
2022-12-06T08:48:54.696Z,16.88
2022-12-06T08:51:21.540Z,22.17
2022-12-06T08:53:48.128Z,14.95
2022-12-06T08:56:15.228Z,13.25
2022-12-06T08:58:41.961Z,14.63
2022-12-06T09:01:35.701Z,14.02
2022-12-06T09:04:05.780Z,14.02
2022-12-06T09:06:32.402Z,13.38
2022-12-06T09:08:58.962Z,11.10
2022-12-06T09:11:26.617Z,14.35
2022-12-06T09:13:53.169Z,11.75
2022-12-06T09:16:22.919Z,10.82
2022-12-06T09:18:51.591Z,10.90
2022-12-06T09:21:24.261Z,11.30
2022-12-06T09:23:51.415Z,11.70
2022-12-06T09:26:18.008Z,17.67
2022-12-06T09:28:49.531Z,13.77
2022-12-06T09:31:17.269Z,13.18
2022-12-06T09:33:43.971Z,12.15
2022-12-06T09:36:23.953Z,12.60
2022-12-06T09:38:57.260Z,13.48
2022-12-06T09:41:43.638Z,11.93
2022-12-06T09:44:35.091Z,14.00
2022-12-06T09:47:34.920Z,14.13
2022-12-06T09:50:13.409Z,12.90
2022-12-06T09:53:00.906Z,12.30
2022-12-06T09:55:38.231Z,12.15
2022-12-06T09:58:52.644Z,16.27
2022-12-06T10:01:43.718Z,12.48
2022-12-06T10:04:39.475Z,14.05
2022-12-06T10:07:22.183Z,14.43
2022-12-06T10:10:10.643Z,13.63
2022-12-06T10:12:49.300Z,12.73
2022-12-06T10:15:23.337Z,16.92
2022-12-06T10:18:56.401Z,16.38
2022-12-06T10:21:55.167Z,15.20
2022-12-06T10:24:33.646Z,14.73
2022-12-06T10:27:30.446Z,14.23
2022-12-06T10:30:01.629Z,13.55
2022-12-06T10:32:43.329Z,12.63
2022-12-06T10:35:19.213Z,13.48
2022-12-06T10:38:09.361Z,15.90
2022-12-06T10:40:50.150Z,15.15
2022-12-06T10:43:32.496Z,16.05
2022-12-06T10:46:37.399Z,16.15
2022-12-06T10:49:12.722Z,14.32
2022-12-06T10:52:17.175Z,15.05
2022-12-06T10:55:10.792Z,14.23
2022-12-06T10:57:58.926Z,16.83
2022-12-06T11:00:27.705Z,17.85
2022-12-06T11:03:27.074Z,16.23
2022-12-06T11:06:07.797Z,18.15
2022-12-06T11:08:39.865Z,18.15
2022-12-06T11:11:14.718Z,16.83
2022-12-06T11:13:49.705Z,15.80
2022-12-06T11:16:22.077Z,17.98
2022-12-06T11:18:49.520Z,14.80
2022-12-06T11:21:37.067Z,24.17
2022-12-06T11:24:29.012Z,28.40
2022-12-06T11:27:04.713Z,23.90
2022-12-06T11:29:31.711Z,30.77
2022-12-06T11:32:07.964Z,43.80
2022-12-06T11:34:47.318Z,26.05
2022-12-06T11:37:18.663Z,16.13
2022-12-06T11:39:46.183Z,18.27
2022-12-06T11:42:16.399Z,18.15
2022-12-06T11:44:53.403Z,16.10
2022-12-06T11:47:22.517Z,15.93
2022-12-06T11:49:51.789Z,18.23
2022-12-06T11:52:26.016Z,15.57
2022-12-06T11:55:00.514Z,15.85
2022-12-06T11:57:34.933Z,19.30
2022-12-06T12:00:13.821Z,16.15
2022-12-06T12:02:42.603Z,19.27
2022-12-06T12:05:25.905Z,17.13
2022-12-06T12:07:59.031Z,18.17
2022-12-06T12:10:39.371Z,17.55
2022-12-06T12:13:33.517Z,18.10
2022-12-06T12:16:43.946Z,19.02
2022-12-06T12:19:43.812Z,14.95
2022-12-06T12:22:25.280Z,15.27
2022-12-06T12:27:46.800Z,18.52
2022-12-06T12:30:31.643Z,15.48
2022-12-06T12:33:10.018Z,15.07
2022-12-06T12:35:37.986Z,16.75
2022-12-06T12:38:10.495Z,15.38
2022-12-06T12:40:47.423Z,15.77
2022-12-06T12:43:14.020Z,17.38
2022-12-06T12:46:03.011Z,16.17
2022-12-06T12:48:30.185Z,17.02
2022-12-06T12:51:03.046Z,20.02
2022-12-06T12:53:30.993Z,16.58
2022-12-06T12:56:14.744Z,19.40
2022-12-06T12:58:42.878Z,19.08
2022-12-06T13:01:41.918Z,21.85
2022-12-06T13:04:20.883Z,15.73
2022-12-06T13:06:50.151Z,19.20
2022-12-06T13:09:58.497Z,18.38
2022-12-06T13:12:38.056Z,16.65
2022-12-06T13:15:19.165Z,18.38
2022-12-06T13:17:55.156Z,20.42
2022-12-06T13:20:34.694Z,23.15
2022-12-06T13:23:12.265Z,25.35
2022-12-06T13:25:38.861Z,14.60
2022-12-06T13:28:14.277Z,17.95
2022-12-06T13:30:42.183Z,17.83
2022-12-06T13:33:21.699Z,17.85
2022-12-06T13:36:11.021Z,15.48
2022-12-06T13:38:39.715Z,16.33
2022-12-06T13:41:47.316Z,22.17
2022-12-06T13:44:59.820Z,19.77
2022-12-06T13:47:29.355Z,16.92
2022-12-06T13:50:01.173Z,16.75
2022-12-06T13:52:43.115Z,13.82
2022-12-06T13:55:25.069Z,16.58
2022-12-06T13:58:00.722Z,16.85
2022-12-06T14:00:30.417Z,12.80
2022-12-06T14:03:03.163Z,14.40
2022-12-06T14:06:14.927Z,14.18
2022-12-06T14:08:59.501Z,15.38
2022-12-06T14:11:28.707Z,14.70
2022-12-06T14:13:55.166Z,14.60
2022-12-06T14:16:36.311Z,13.88
2022-12-06T14:19:24.712Z,12.23
2022-12-06T14:21:55.941Z,15.57
2022-12-06T14:24:29.100Z,14.68
2022-12-06T14:27:04.600Z,11.60
2022-12-06T14:29:32.169Z,11.65
2022-12-06T14:31:58.983Z,10.82
2022-12-06T14:34:28.204Z,15.20
2022-12-06T14:36:56.280Z,14.07
2022-12-06T14:39:26.051Z,13.48
2022-12-06T14:42:22.732Z,10.35
2022-12-06T14:45:00.352Z,10.43
2022-12-06T14:47:29.041Z,11.10
2022-12-06T14:50:17.672Z,11.07
2022-12-06T14:52:57.928Z,10.90
2022-12-06T14:55:24.940Z,12.98
2022-12-06T14:57:57.211Z,11.70
2022-12-06T15:00:28.615Z,16.10
2022-12-06T15:03:25.545Z,10.35
2022-12-06T15:06:12.441Z,13.18
2022-12-06T15:08:41.421Z,12.50
2022-12-06T15:11:10.979Z,14.48
2022-12-06T15:13:39.181Z,10.82
2022-12-06T15:16:08.556Z,15.10
2022-12-06T15:18:56.995Z,12.80
2022-12-06T15:21:23.854Z,12.98
2022-12-06T15:23:55.227Z,12.13
2022-12-06T15:26:23.656Z,11.38
2022-12-06T15:28:51.269Z,10.18
2022-12-06T15:31:24.582Z,15.80
2022-12-06T15:33:51.283Z,12.68
2022-12-06T15:36:21.137Z,14.90
2022-12-06T15:38:48.129Z,14.43
2022-12-06T15:41:23.003Z,13.88
2022-12-06T15:43:50.503Z,12.75
2022-12-06T15:46:24.586Z,10.57
2022-12-06T15:48:52.369Z,15.50
2022-12-06T15:51:24.799Z,15.02
2022-12-06T15:53:51.554Z,18.95
2022-12-06T15:56:20.901Z,19.30
2022-12-06T15:58:48.205Z,16.20
2022-12-06T16:01:14.748Z,20.05
2022-12-06T16:03:41.350Z,14.15
2022-12-06T16:06:15.688Z,13.13
2022-12-06T16:08:42.577Z,17.38
2022-12-06T16:11:12.348Z,16.95
2022-12-06T16:13:39.723Z,14.90
2022-12-06T16:16:07.212Z,20.60
2022-12-06T16:18:33.834Z,16.50
2022-12-06T16:21:01.008Z,16.08
2022-12-06T16:26:38.159Z,16.08
2022-12-06T16:29:07.275Z,20.15
2022-12-06T16:31:38.581Z,17.30
2022-12-06T16:34:05.372Z,16.60
2022-12-06T16:36:33.008Z,15.98
2022-12-06T16:39:02.183Z,16.23
2022-12-06T16:41:33.793Z,17.60
2022-12-06T16:44:00.538Z,16.65
2022-12-06T16:46:29.023Z,25.73
2022-12-06T16:49:22.158Z,21.77
2022-12-06T16:51:49.036Z,16.83
2022-12-06T16:54:16.833Z,12.88
2022-12-06T16:56:44.150Z,13.80
2022-12-06T16:59:18.082Z,13.43
2022-12-06T17:01:53.713Z,13.07
2022-12-06T17:04:20.832Z,15.73
2022-12-06T17:06:47.672Z,12.05
2022-12-06T17:09:14.772Z,18.92
2022-12-06T17:12:00.405Z,11.45
2022-12-06T17:14:27.175Z,11.18
2022-12-06T17:16:55.011Z,16.65
2022-12-06T17:19:24.038Z,11.20
2022-12-06T17:21:52.523Z,11.82
2022-12-06T17:24:20.698Z,12.23
2022-12-06T17:26:47.463Z,13.55
2022-12-06T17:29:14.116Z,11.57
2022-12-06T17:31:41.057Z,10.55
2022-12-06T17:34:08.373Z,10.23
2022-12-06T17:36:35.623Z,13.73
2022-12-06T17:39:04.528Z,7.85
2022-12-06T17:41:52.108Z,8.27
2022-12-06T17:44:19.242Z,8.82
2022-12-06T17:46:46.754Z,8.95
2022-12-06T17:49:19.342Z,6.57
2022-12-06T17:51:46.204Z,7.93
2022-12-06T17:54:13.260Z,7.53
2022-12-06T17:56:42.519Z,6.10
2022-12-06T17:59:11.505Z,8.65
2022-12-06T18:02:12.815Z,7.40
2022-12-06T18:04:26.704Z,12.35
2022-12-06T18:06:53.649Z,12.32
2022-12-06T18:09:20.447Z,7.75
2022-12-06T18:11:48.943Z,7.88
2022-12-06T18:14:16.618Z,6.90
2022-12-06T18:16:48.261Z,8.13
2022-12-06T18:19:20.468Z,8.00
2022-12-06T18:21:47.598Z,6.43
2022-12-06T18:24:26.900Z,7.63
2022-12-06T18:26:57.683Z,8.38
2022-12-06T18:29:24.499Z,8.15
2022-12-06T18:31:52.032Z,10.25
2022-12-06T18:34:18.986Z,9.52
2022-12-06T18:36:46.131Z,9.52
2022-12-06T18:39:24.201Z,14.30
2022-12-06T18:41:53.161Z,9.23
2022-12-06T18:44:19.886Z,8.20
2022-12-06T18:46:46.477Z,8.88
2022-12-06T18:49:13.270Z,7.68
2022-12-06T18:51:39.988Z,8.20
2022-12-06T18:54:07.169Z,9.43
2022-12-06T18:56:34.745Z,9.32
2022-12-06T18:59:06.096Z,12.27
2022-12-06T19:01:35.239Z,9.15
2022-12-06T19:04:03.588Z,7.65
2022-12-06T19:06:38.108Z,12.15
2022-12-06T19:09:07.767Z,9.10
2022-12-06T19:11:37.097Z,9.73
2022-12-06T19:14:05.074Z,8.23
2022-12-06T19:16:41.603Z,8.40
2022-12-06T19:19:16.123Z,7.68
2022-12-06T19:21:44.320Z,8.68
2022-12-06T19:24:16.405Z,11.10
2022-12-06T19:26:43.110Z,10.52
2022-12-06T19:29:10.086Z,7.90
2022-12-06T19:31:36.997Z,8.75
2022-12-06T19:34:03.630Z,7.50
2022-12-06T19:36:31.396Z,9.63
2022-12-06T19:38:59.772Z,8.25
2022-12-06T19:41:26.684Z,10.80
2022-12-06T19:44:12.112Z,9.23
2022-12-06T19:46:41.062Z,8.57
2022-12-06T19:49:07.669Z,7.18
2022-12-06T19:51:39.035Z,6.70
2022-12-06T19:54:07.095Z,7.95
2022-12-06T19:56:34.199Z,7.13
2022-12-06T19:59:04.478Z,7.40
2022-12-06T20:01:32.174Z,10.43
2022-12-06T20:03:58.787Z,14.35
2022-12-06T20:06:27.225Z,9.25
2022-12-06T20:08:58.135Z,6.22
2022-12-06T20:11:45.676Z,7.07
2022-12-06T20:14:16.369Z,6.18
2022-12-06T20:16:43.555Z,7.95
2022-12-06T20:19:11.917Z,7.30
2022-12-06T20:21:38.844Z,10.90
2022-12-06T20:24:05.603Z,8.40
2022-12-06T20:26:33.645Z,8.43
2022-12-06T20:29:00.491Z,5.57
2022-12-06T20:31:29.681Z,7.32
2022-12-06T20:34:01.919Z,6.55
2022-12-06T20:36:30.329Z,8.90
2022-12-06T20:38:57.545Z,6.35
2022-12-06T20:41:26.814Z,5.88
2022-12-06T20:43:53.421Z,7.63
2022-12-06T20:46:28.930Z,6.00
2022-12-06T20:48:57.353Z,6.93
2022-12-06T20:51:26.705Z,7.32
2022-12-06T20:53:57.390Z,6.13
2022-12-06T20:56:26.846Z,7.00
2022-12-06T20:58:56.561Z,6.78
2022-12-06T21:01:26.358Z,10.05
2022-12-06T21:03:54.868Z,6.38
2022-12-06T21:06:23.608Z,9.65
2022-12-06T21:08:51.245Z,9.35
2022-12-06T21:11:23.665Z,9.90
2022-12-06T21:13:55.748Z,10.48
2022-12-06T21:16:26.339Z,11.68
2022-12-06T21:18:59.595Z,8.68
2022-12-06T21:21:28.797Z,7.13
2022-12-06T21:23:58.089Z,6.93
2022-12-06T21:26:24.628Z,8.50
2022-12-06T21:28:52.962Z,8.20
2022-12-06T21:31:19.774Z,10.60
2022-12-06T21:33:46.538Z,12.52
2022-12-06T21:36:13.119Z,14.38
2022-12-06T21:38:39.895Z,12.38
2022-12-06T21:41:08.906Z,11.25
2022-12-06T21:43:36.088Z,13.15
2022-12-06T21:46:04.629Z,13.98
2022-12-06T21:48:31.432Z,15.57
2022-12-06T21:51:09.577Z,14.35
2022-12-06T21:53:37.483Z,18.02
2022-12-06T21:56:09.616Z,23.95
2022-12-06T21:58:37.317Z,17.25
2022-12-06T22:01:07.259Z,14.57
2022-12-06T22:03:33.954Z,25.80
2022-12-06T22:06:19.321Z,15.43
2022-12-06T22:08:47.326Z,12.82
2022-12-06T22:11:19.773Z,18.58
2022-12-06T22:13:48.055Z,16.27
2022-12-06T22:16:15.968Z,20.30
2022-12-06T22:18:45.905Z,14.65
2022-12-06T22:21:19.074Z,14.45
2022-12-06T22:23:46.989Z,14.02
2022-12-06T22:26:17.105Z,15.50
2022-12-06T22:28:43.955Z,14.68
2022-12-06T22:31:23.054Z,15.18
2022-12-06T22:33:50.620Z,18.20
2022-12-06T22:36:18.021Z,19.63
2022-12-06T22:38:47.833Z,17.30
2022-12-06T22:41:14.418Z,16.10
2022-12-06T22:43:40.924Z,19.15
2022-12-06T22:46:10.849Z,20.38
2022-12-06T22:48:38.460Z,21.25
2022-12-06T22:51:09.284Z,20.75
2022-12-06T22:53:35.925Z,19.75
2022-12-06T22:56:02.686Z,20.65
2022-12-06T22:58:29.261Z,19.63
2022-12-06T23:00:55.949Z,20.00
2022-12-06T23:03:22.567Z,20.00
2022-12-06T23:05:59.682Z,23.55
2022-12-06T23:08:26.755Z,18.75
2022-12-06T23:11:06.549Z,20.20
2022-12-06T23:13:33.404Z,17.10
2022-12-06T23:16:02.437Z,16.85
2022-12-06T23:18:30.372Z,19.50
2022-12-06T23:21:15.100Z,21.65
2022-12-06T23:23:45.876Z,20.00
2022-12-06T23:26:15.720Z,18.33
2022-12-06T23:28:42.301Z,24.98
2022-12-06T23:31:18.477Z,19.35
2022-12-06T23:33:46.109Z,20.50
2022-12-06T23:36:22.353Z,18.88
2022-12-06T23:38:48.979Z,19.70
2022-12-06T23:41:21.952Z,22.10
2022-12-06T23:43:49.166Z,23.23
2022-12-06T23:46:22.596Z,21.83
2022-12-06T23:48:50.630Z,20.90
2022-12-06T23:51:20.310Z,23.35
2022-12-06T23:53:51.237Z,21.00
2022-12-06T23:56:20.617Z,22.30
2022-12-06T23:58:47.791Z,22.77
